Lockwood, CA (93932)

10:20 PM PDT on July 30, 2016 (GMT -0700)
Davis Canyon / Argyle | | Change Station

Elev 1179 ft 35.99 °N, 121.13 °W | Updated 15 seconds ago

Clear
Clear
66.7 °F
Feels Like 66.7 °F
N
0.0
Wind Variable Wind from East
Gusts 0.0 mph

Today
High -- | Low -- °F
--% Chance of Precip.
Yesterday
High -- | Low -- °F
Precip. -- in
Pressure 29.82 in
Visibility 10.0 miles
Clouds Clear
Dew Point 40 °F
Humidity 38%
Rainfall 0.00 in
Snow Depth Not available.
6:11 AM 8:10 PM
Waning Crescent, 8% visible
METAR KPRB 310453Z AUTO 18005KT 10SM CLR 24/11 A2985 RMK AO2 SLP098 T02390106 TSNO
Pressure 29.82 in
Visibility 10.0 miles
Clouds Clear
Dew Point 40 °F
Humidity 38%
Rainfall 0.00 in
Snow Depth Not available.
6:11 AM 8:10 PM
Waning Crescent, 8% visible
METAR KPRB 310453Z AUTO 18005KT 10SM CLR 24/11 A2985 RMK AO2 SLP098 T02390106 TSNO

10-Day Weather Forecast

Almanac

Astronomy

Jul. 30, 2016 Rise Set
Actual Time
Civil Twilight
Nautical Twilight
Astronomical Twilight
Moon
Length of Visible Light
Length of Day
Tomorrow will be .
, % of the Moon is Illuminated

Today's Extremes

State Highs State Lows

Community

WunderPhotos

Upload Photos

1,928,764 photos uploaded!

WunderBlog® & News

Nearby

Air Quality

  Air Quality AQ Index Pollutant
Not available.

Snow Depth

Station Depth Elevation

Earthquake Activity

City Distance Mag. Time & Date
Minimum magnitude displayed is 2.5.

Coastal Water Temperatures

Place Temperature

Stations

Nearby Weather Stations

Station Location Temp. Windchill Dew Point Humidity Wind Precip. Elev Updated Type
                   

Watches & Warnings

There are currently no watches in effect.